sensor_id;sensor_type;location;lat;lon;timestamp;pressure;altitude;pressure_sealevel;temperature;humidity
69127;BME280;56688;50.234;19.292;2023-12-04T00:02:03;99162.00;;;-3.59;78.30
69127;BME280;56688;50.234;19.292;2023-12-04T00:04:30;99160.46;;;-3.57;78.37
69127;BME280;56688;50.234;19.292;2023-12-04T00:06:58;99161.34;;;-3.51;78.48
69127;BME280;56688;50.234;19.292;2023-12-04T00:09:25;99159.48;;;-3.46;78.46
69127;BME280;56688;50.234;19.292;2023-12-04T00:11:54;99160.31;;;-3.42;78.39
69127;BME280;56688;50.234;19.292;2023-12-04T00:14:21;99161.67;;;-3.41;78.26
69127;BME280;56688;50.234;19.292;2023-12-04T00:16:47;99159.40;;;-3.41;78.31
69127;BME280;56688;50.234;19.292;2023-12-04T00:19:15;99160.33;;;-3.42;78.37
69127;BME280;56688;50.234;19.292;2023-12-04T00:21:41;99164.76;;;-3.43;78.24
69127;BME280;56688;50.234;19.292;2023-12-04T00:24:08;99163.77;;;-3.47;78.46
69127;BME280;56688;50.234;19.292;2023-12-04T00:26:35;99161.77;;;-3.49;78.43
69127;BME280;56688;50.234;19.292;2023-12-04T00:29:02;99159.48;;;-3.49;78.48
69127;BME280;56688;50.234;19.292;2023-12-04T00:31:29;99160.15;;;-3.48;78.60
69127;BME280;56688;50.234;19.292;2023-12-04T00:33:58;99159.49;;;-3.46;78.59
69127;BME280;56688;50.234;19.292;2023-12-04T00:36:25;99159.07;;;-3.44;78.46
69127;BME280;56688;50.234;19.292;2023-12-04T00:38:52;99151.63;;;-3.45;78.35
69127;BME280;56688;50.234;19.292;2023-12-04T00:41:19;99152.33;;;-3.45;78.36
69127;BME280;56688;50.234;19.292;2023-12-04T00:43:46;99152.79;;;-3.47;78.16
69127;BME280;56688;50.234;19.292;2023-12-04T00:46:13;99151.19;;;-3.53;78.31
69127;BME280;56688;50.234;19.292;2023-12-04T00:48:40;99151.71;;;-3.56;78.33
69127;BME280;56688;50.234;19.292;2023-12-04T00:51:14;99150.26;;;-3.58;78.43
69127;BME280;56688;50.234;19.292;2023-12-04T00:54:40;99145.82;;;-3.56;78.50
69127;BME280;56688;50.234;19.292;2023-12-04T00:57:08;99151.66;;;-3.55;78.41
69127;BME280;56688;50.234;19.292;2023-12-04T00:59:35;99158.98;;;-3.55;78.66
69127;BME280;56688;50.234;19.292;2023-12-04T01:02:02;99164.73;;;-3.55;78.38
69127;BME280;56688;50.234;19.292;2023-12-04T01:04:31;99174.49;;;-3.58;78.47
69127;BME280;56688;50.234;19.292;2023-12-04T01:06:57;99177.73;;;-3.61;78.29
69127;BME280;56688;50.234;19.292;2023-12-04T01:09:25;99182.51;;;-3.66;78.14
69127;BME280;56688;50.234;19.292;2023-12-04T01:11:53;99182.14;;;-3.71;78.07
69127;BME280;56688;50.234;19.292;2023-12-04T01:14:21;99186.52;;;-3.78;78.05
69127;BME280;56688;50.234;19.292;2023-12-04T01:16:48;99188.98;;;-3.86;78.14
69127;BME280;56688;50.234;19.292;2023-12-04T01:19:15;99193.80;;;-3.87;78.35
69127;BME280;56688;50.234;19.292;2023-12-04T01:21:42;99190.42;;;-3.83;78.34
69127;BME280;56688;50.234;19.292;2023-12-04T01:24:09;99192.99;;;-3.76;78.58
69127;BME280;56688;50.234;19.292;2023-12-04T01:26:36;99192.91;;;-3.68;78.53
69127;BME280;56688;50.234;19.292;2023-12-04T01:29:03;99192.03;;;-3.61;78.24
69127;BME280;56688;50.234;19.292;2023-12-04T01:31:30;99193.14;;;-3.59;77.79
69127;BME280;56688;50.234;19.292;2023-12-04T01:33:57;99198.13;;;-3.61;77.36
69127;BME280;56688;50.234;19.292;2023-12-04T01:36:24;99194.64;;;-3.68;76.93
69127;BME280;56688;50.234;19.292;2023-12-04T01:38:52;99190.77;;;-3.77;76.89
69127;BME280;56688;50.234;19.292;2023-12-04T01:41:19;99191.20;;;-3.84;76.91
69127;BME280;56688;50.234;19.292;2023-12-04T01:43:46;99189.98;;;-3.94;76.81
69127;BME280;56688;50.234;19.292;2023-12-04T01:46:16;99188.73;;;-4.04;77.00
69127;BME280;56688;50.234;19.292;2023-12-04T01:48:45;99184.38;;;-4.14;77.15
69127;BME280;56688;50.234;19.292;2023-12-04T01:51:14;99186.40;;;-4.19;77.36
69127;BME280;56688;50.234;19.292;2023-12-04T01:53:42;99185.55;;;-4.23;77.56
69127;BME280;56688;50.234;19.292;2023-12-04T01:56:09;99187.21;;;-4.25;77.71
69127;BME280;56688;50.234;19.292;2023-12-04T01:58:37;99180.46;;;-4.29;77.57
69127;BME280;56688;50.234;19.292;2023-12-04T02:01:05;99183.15;;;-4.37;77.45
69127;BME280;56688;50.234;19.292;2023-12-04T02:03:32;99183.98;;;-4.46;77.02
69127;BME280;56688;50.234;19.292;2023-12-04T02:06:00;99181.17;;;-4.60;76.88
69127;BME280;56688;50.234;19.292;2023-12-04T02:08:29;99183.02;;;-4.76;76.74
69127;BME280;56688;50.234;19.292;2023-12-04T02:10:56;99186.13;;;-4.90;77.23
69127;BME280;56688;50.234;19.292;2023-12-04T02:13:23;99181.75;;;-5.00;77.46
69127;BME280;56688;50.234;19.292;2023-12-04T02:15:53;99177.94;;;-5.11;77.45
69127;BME280;56688;50.234;19.292;2023-12-04T02:18:21;99177.22;;;-5.21;77.31
69127;BME280;56688;50.234;19.292;2023-12-04T02:20:49;99177.33;;;-5.35;77.12
69127;BME280;56688;50.234;19.292;2023-12-04T02:23:16;99183.29;;;-5.47;76.61
69127;BME280;56688;50.234;19.292;2023-12-04T02:25:43;99184.06;;;-5.60;75.98
69127;BME280;56688;50.234;19.292;2023-12-04T02:28:13;99181.23;;;-5.70;75.66
69127;BME280;56688;50.234;19.292;2023-12-04T02:30:43;99178.52;;;-5.78;75.67
69127;BME280;56688;50.234;19.292;2023-12-04T02:33:12;99180.09;;;-5.86;75.12
69127;BME280;56688;50.234;19.292;2023-12-04T02:35:41;99177.05;;;-5.99;74.62
69127;BME280;56688;50.234;19.292;2023-12-04T02:38:09;99175.06;;;-6.13;74.27
69127;BME280;56688;50.234;19.292;2023-12-04T02:40:36;99174.86;;;-6.28;73.72
69127;BME280;56688;50.234;19.292;2023-12-04T02:43:03;99174.39;;;-6.45;73.23
69127;BME280;56688;50.234;19.292;2023-12-04T02:45:30;99173.75;;;-6.62;72.67
69127;BME280;56688;50.234;19.292;2023-12-04T02:47:57;99177.38;;;-6.79;72.27
69127;BME280;56688;50.234;19.292;2023-12-04T02:50:24;99187.33;;;-6.93;71.76
69127;BME280;56688;50.234;19.292;2023-12-04T02:52:51;99193.27;;;-7.03;71.70
69127;BME280;56688;50.234;19.292;2023-12-04T02:55:18;99193.23;;;-7.11;71.40
69127;BME280;56688;50.234;19.292;2023-12-04T02:57:45;99194.23;;;-7.19;70.80
69127;BME280;56688;50.234;19.292;2023-12-04T03:00:12;99197.73;;;-7.24;70.37
69127;BME280;56688;50.234;19.292;2023-12-04T03:02:40;99205.14;;;-7.27;69.97
69127;BME280;56688;50.234;19.292;2023-12-04T03:05:07;99203.71;;;-7.32;69.44
69127;BME280;56688;50.234;19.292;2023-12-04T03:07:33;99200.96;;;-7.36;68.66
69127;BME280;56688;50.234;19.292;2023-12-04T03:10:01;99198.61;;;-7.42;67.84
69127;BME280;56688;50.234;19.292;2023-12-04T03:12:28;99201.27;;;-7.49;67.68
69127;BME280;56688;50.234;19.292;2023-12-04T03:14:55;99199.88;;;-7.53;67.11
69127;BME280;56688;50.234;19.292;2023-12-04T03:17:22;99199.77;;;-7.59;66.43
69127;BME280;56688;50.234;19.292;2023-12-04T03:19:49;99198.90;;;-7.64;66.42
69127;BME280;56688;50.234;19.292;2023-12-04T03:22:17;99197.97;;;-7.66;66.92
69127;BME280;56688;50.234;19.292;2023-12-04T03:24:44;99198.19;;;-7.67;67.36
69127;BME280;56688;50.234;19.292;2023-12-04T03:27:12;99198.52;;;-7.71;67.41
69127;BME280;56688;50.234;19.292;2023-12-04T03:29:39;99196.39;;;-7.75;67.23
69127;BME280;56688;50.234;19.292;2023-12-04T03:32:06;99193.55;;;-7.77;67.59
69127;BME280;56688;50.234;19.292;2023-12-04T03:34:32;99187.50;;;-7.77;67.97
69127;BME280;56688;50.234;19.292;2023-12-04T03:36:59;99185.42;;;-7.77;67.72
69127;BME280;56688;50.234;19.292;2023-12-04T03:39:26;99188.83;;;-7.76;67.86
69127;BME280;56688;50.234;19.292;2023-12-04T03:41:53;99190.97;;;-7.73;67.85
69127;BME280;56688;50.234;19.292;2023-12-04T03:44:22;99196.42;;;-7.71;67.51
69127;BME280;56688;50.234;19.292;2023-12-04T03:46:49;99202.34;;;-7.72;67.14
69127;BME280;56688;50.234;19.292;2023-12-04T03:49:16;99205.73;;;-7.75;67.10
69127;BME280;56688;50.234;19.292;2023-12-04T03:51:43;99211.93;;;-7.79;66.44
69127;BME280;56688;50.234;19.292;2023-12-04T03:54:10;99214.30;;;-7.81;66.29
69127;BME280;56688;50.234;19.292;2023-12-04T03:56:36;99217.77;;;-7.82;66.69
69127;BME280;56688;50.234;19.292;2023-12-04T03:59:03;99218.11;;;-7.82;66.76
69127;BME280;56688;50.234;19.292;2023-12-04T04:01:30;99220.98;;;-7.86;66.98
69127;BME280;56688;50.234;19.292;2023-12-04T04:03:57;99224.05;;;-7.85;67.67
69127;BME280;56688;50.234;19.292;2023-12-04T04:06:24;99223.30;;;-7.82;67.56
69127;BME280;56688;50.234;19.292;2023-12-04T04:08:51;99224.13;;;-7.81;67.54
69127;BME280;56688;50.234;19.292;2023-12-04T04:11:19;99223.90;;;-7.79;67.85
69127;BME280;56688;50.234;19.292;2023-12-04T04:13:46;99227.39;;;-7.76;67.62
69127;BME280;56688;50.234;19.292;2023-12-04T04:16:15;99229.55;;;-7.73;67.26
69127;BME280;56688;50.234;19.292;2023-12-04T04:18:43;99230.39;;;-7.73;67.05
69127;BME280;56688;50.234;19.292;2023-12-04T04:21:10;99224.43;;;-7.75;67.05
69127;BME280;56688;50.234;19.292;2023-12-04T04:23:37;99223.32;;;-7.78;66.64
69127;BME280;56688;50.234;19.292;2023-12-04T04:26:05;99218.24;;;-7.86;66.11
69127;BME280;56688;50.234;19.292;2023-12-04T04:28:32;99221.55;;;-7.96;66.00
69127;BME280;56688;50.234;19.292;2023-12-04T04:30:59;99219.69;;;-8.06;66.09
69127;BME280;56688;50.234;19.292;2023-12-04T04:33:26;99220.98;;;-8.19;66.16
69127;BME280;56688;50.234;19.292;2023-12-04T04:35:53;99224.27;;;-8.33;66.37
69127;BME280;56688;50.234;19.292;2023-12-04T04:38:20;99224.69;;;-8.50;65.98
69127;BME280;56688;50.234;19.292;2023-12-04T04:40:47;99224.33;;;-8.65;66.52
69127;BME280;56688;50.234;19.292;2023-12-04T04:43:14;99222.31;;;-8.77;66.96
69127;BME280;56688;50.234;19.292;2023-12-04T04:45:41;99223.27;;;-8.85;67.19
69127;BME280;56688;50.234;19.292;2023-12-04T04:48:08;99221.02;;;-8.90;67.50
69127;BME280;56688;50.234;19.292;2023-12-04T04:50:35;99222.80;;;-8.92;67.87
69127;BME280;56688;50.234;19.292;2023-12-04T04:53:02;99224.13;;;-8.90;68.09
69127;BME280;56688;50.234;19.292;2023-12-04T04:55:29;99227.36;;;-8.89;68.30
69127;BME280;56688;50.234;19.292;2023-12-04T04:58:16;99231.54;;;-8.84;68.25
69127;BME280;56688;50.234;19.292;2023-12-04T05:00:43;99231.36;;;-8.80;68.01
69127;BME280;56688;50.234;19.292;2023-12-04T05:03:10;99228.52;;;-8.72;68.20
69127;BME280;56688;50.234;19.292;2023-12-04T05:05:37;99230.48;;;-8.63;68.08
69127;BME280;56688;50.234;19.292;2023-12-04T05:08:04;99221.75;;;-8.55;68.29
69127;BME280;56688;50.234;19.292;2023-12-04T05:10:31;99223.98;;;-8.45;68.25
69127;BME280;56688;50.234;19.292;2023-12-04T05:12:58;99222.46;;;-8.36;68.15
69127;BME280;56688;50.234;19.292;2023-12-04T05:15:25;99217.47;;;-8.27;68.46
69127;BME280;56688;50.234;19.292;2023-12-04T05:17:53;99215.00;;;-8.16;68.72
69127;BME280;56688;50.234;19.292;2023-12-04T05:20:20;99206.83;;;-8.09;68.98
69127;BME280;56688;50.234;19.292;2023-12-04T05:22:47;99216.37;;;-7.92;69.48
69127;BME280;56688;50.234;19.292;2023-12-04T05:25:15;99216.93;;;-7.78;70.33
69127;BME280;56688;50.234;19.292;2023-12-04T05:27:42;99216.34;;;-7.63;71.45
69127;BME280;56688;50.234;19.292;2023-12-04T05:30:09;99217.52;;;-7.52;71.08
69127;BME280;56688;50.234;19.292;2023-12-04T05:32:36;99215.25;;;-7.43;70.73
69127;BME280;56688;50.234;19.292;2023-12-04T05:35:03;99215.92;;;-7.38;70.12
69127;BME280;56688;50.234;19.292;2023-12-04T05:37:30;99216.88;;;-7.36;69.55
69127;BME280;56688;50.234;19.292;2023-12-04T05:39:57;99216.93;;;-7.38;70.11
69127;BME280;56688;50.234;19.292;2023-12-04T05:42:25;99219.59;;;-7.35;72.73
69127;BME280;56688;50.234;19.292;2023-12-04T05:44:51;99217.44;;;-7.33;72.81
69127;BME280;56688;50.234;19.292;2023-12-04T05:47:22;99221.51;;;-7.39;71.52
69127;BME280;56688;50.234;19.292;2023-12-04T05:49:49;99221.41;;;-7.50;70.76
69127;BME280;56688;50.234;19.292;2023-12-04T05:52:16;99224.27;;;-7.62;70.16
69127;BME280;56688;50.234;19.292;2023-12-04T05:54:43;99224.40;;;-7.75;70.11
69127;BME280;56688;50.234;19.292;2023-12-04T05:57:10;99222.64;;;-7.83;69.88
69127;BME280;56688;50.234;19.292;2023-12-04T05:59:37;99219.27;;;-7.91;69.78
69127;BME280;56688;50.234;19.292;2023-12-04T06:02:11;99215.08;;;-7.94;69.88
69127;BME280;56688;50.234;19.292;2023-12-04T06:04:39;99214.64;;;-7.96;69.88
69127;BME280;56688;50.234;19.292;2023-12-04T06:07:06;99209.98;;;-7.96;69.68
69127;BME280;56688;50.234;19.292;2023-12-04T06:09:33;99205.00;;;-7.97;69.47
69127;BME280;56688;50.234;19.292;2023-12-04T06:12:03;99204.89;;;-7.94;69.45
69127;BME280;56688;50.234;19.292;2023-12-04T06:14:35;99206.20;;;-7.92;69.21
69127;BME280;56688;50.234;19.292;2023-12-04T06:17:02;99209.75;;;-7.90;68.77
69127;BME280;56688;50.234;19.292;2023-12-04T06:19:29;99207.10;;;-7.89;68.30
69127;BME280;56688;50.234;19.292;2023-12-04T06:21:56;99207.08;;;-7.88;68.00
69127;BME280;56688;50.234;19.292;2023-12-04T06:24:24;99210.21;;;-7.89;67.39
69127;BME280;56688;50.234;19.292;2023-12-04T06:26:52;99214.90;;;-7.89;67.09
69127;BME280;56688;50.234;19.292;2023-12-04T06:29:20;99212.67;;;-7.89;66.60
69127;BME280;56688;50.234;19.292;2023-12-04T06:31:47;99210.78;;;-7.90;66.21
69127;BME280;56688;50.234;19.292;2023-12-04T06:34:14;99209.42;;;-7.91;65.76
69127;BME280;56688;50.234;19.292;2023-12-04T06:36:41;99211.05;;;-7.93;65.32
69127;BME280;56688;50.234;19.292;2023-12-04T06:39:11;99213.73;;;-7.95;65.01
69127;BME280;56688;50.234;19.292;2023-12-04T06:41:39;99212.61;;;-7.98;64.47
69127;BME280;56688;50.234;19.292;2023-12-04T06:44:07;99211.02;;;-8.01;63.92
69127;BME280;56688;50.234;19.292;2023-12-04T06:46:37;99212.30;;;-8.03;64.14
69127;BME280;56688;50.234;19.292;2023-12-04T06:49:05;99210.62;;;-8.04;63.81
69127;BME280;56688;50.234;19.292;2023-12-04T06:51:33;99209.98;;;-8.06;63.62
69127;BME280;56688;50.234;19.292;2023-12-04T06:54:00;99214.37;;;-8.08;63.57
69127;BME280;56688;50.234;19.292;2023-12-04T06:56:28;99215.83;;;-8.05;63.10
69127;BME280;56688;50.234;19.292;2023-12-04T06:58:55;99217.91;;;-8.05;62.94
69127;BME280;56688;50.234;19.292;2023-12-04T07:01:23;99213.73;;;-8.04;62.67
69127;BME280;56688;50.234;19.292;2023-12-04T07:03:50;99206.29;;;-8.04;62.53
69127;BME280;56688;50.234;19.292;2023-12-04T07:06:17;99205.98;;;-8.00;62.16
69127;BME280;56688;50.234;19.292;2023-12-04T07:08:44;99207.11;;;-7.94;62.21
69127;BME280;56688;50.234;19.292;2023-12-04T07:11:11;99211.06;;;-7.83;62.33
69127;BME280;56688;50.234;19.292;2023-12-04T07:13:41;99214.86;;;-7.65;62.90
69127;BME280;56688;50.234;19.292;2023-12-04T07:16:09;99214.80;;;-7.40;62.93
69127;BME280;56688;50.234;19.292;2023-12-04T07:18:36;99215.13;;;-7.13;62.67
69127;BME280;56688;50.234;19.292;2023-12-04T07:21:03;99219.20;;;-6.90;61.98
69127;BME280;56688;50.234;19.292;2023-12-04T07:23:30;99216.60;;;-6.68;61.29
69127;BME280;56688;50.234;19.292;2023-12-04T07:25:57;99211.21;;;-6.51;60.81
69127;BME280;56688;50.234;19.292;2023-12-04T07:28:24;99215.90;;;-6.35;60.47
69127;BME280;56688;50.234;19.292;2023-12-04T07:30:53;99214.84;;;-6.23;59.99
69127;BME280;56688;50.234;19.292;2023-12-04T07:33:20;99213.86;;;-6.12;59.84
69127;BME280;56688;50.234;19.292;2023-12-04T07:35:47;99213.72;;;-6.01;59.43
69127;BME280;56688;50.234;19.292;2023-12-04T07:38:14;99214.95;;;-5.93;58.99
69127;BME280;56688;50.234;19.292;2023-12-04T07:40:41;99212.85;;;-5.86;59.34
69127;BME280;56688;50.234;19.292;2023-12-04T07:43:08;99216.95;;;-5.76;59.53
69127;BME280;56688;50.234;19.292;2023-12-04T07:45:35;99213.08;;;-5.64;59.55
69127;BME280;56688;50.234;19.292;2023-12-04T07:48:04;99214.86;;;-5.50;59.69
69127;BME280;56688;50.234;19.292;2023-12-04T07:50:31;99213.64;;;-5.38;59.27
69127;BME280;56688;50.234;19.292;2023-12-04T07:52:59;99217.88;;;-5.33;59.17
69127;BME280;56688;50.234;19.292;2023-12-04T07:55:26;99213.57;;;-5.19;59.76
69127;BME280;56688;50.234;19.292;2023-12-04T07:57:53;99212.55;;;-5.00;59.73
69127;BME280;56688;50.234;19.292;2023-12-04T08:00:20;99206.07;;;-4.85;59.86
69127;BME280;56688;50.234;19.292;2023-12-04T08:02:49;99204.40;;;-4.65;59.68
69127;BME280;56688;50.234;19.292;2023-12-04T08:05:20;99198.76;;;-4.47;59.83
69127;BME280;56688;50.234;19.292;2023-12-04T08:07:47;99198.83;;;-4.31;59.94
69127;BME280;56688;50.234;19.292;2023-12-04T08:10:14;99199.50;;;-4.07;60.17
69127;BME280;56688;50.234;19.292;2023-12-04T08:12:44;99198.64;;;-3.83;60.05
69127;BME280;56688;50.234;19.292;2023-12-04T08:15:11;99198.03;;;-3.56;59.91
69127;BME280;56688;50.234;19.292;2023-12-04T08:17:38;99195.70;;;-3.29;59.72
69127;BME280;56688;50.234;19.292;2023-12-04T08:20:06;99197.58;;;-3.00;59.48
69127;BME280;56688;50.234;19.292;2023-12-04T08:22:33;99195.61;;;-2.66;59.51
69127;BME280;56688;50.234;19.292;2023-12-04T08:25:01;99190.23;;;-2.22;59.40
69127;BME280;56688;50.234;19.292;2023-12-04T08:27:28;99190.16;;;-1.66;59.01
69127;BME280;56688;50.234;19.292;2023-12-04T08:29:55;99191.13;;;-1.04;58.63
69127;BME280;56688;50.234;19.292;2023-12-04T08:32:22;99193.20;;;-0.42;59.05
69127;BME280;56688;50.234;19.292;2023-12-04T08:34:49;99190.80;;;0.06;60.28
69127;BME280;56688;50.234;19.292;2023-12-04T08:37:16;99192.61;;;0.58;59.95
69127;BME280;56688;50.234;19.292;2023-12-04T08:39:43;99191.58;;;1.06;59.58
69127;BME280;56688;50.234;19.292;2023-12-04T08:42:11;99186.40;;;1.55;59.04
69127;BME280;56688;50.234;19.292;2023-12-04T08:44:48;99189.30;;;2.03;58.74
69127;BME280;56688;50.234;19.292;2023-12-04T08:47:15;99191.46;;;2.49;57.59
69127;BME280;56688;50.234;19.292;2023-12-04T08:49:43;99193.70;;;2.88;56.27
69127;BME280;56688;50.234;19.292;2023-12-04T08:52:15;99194.11;;;3.13;55.40
69127;BME280;56688;50.234;19.292;2023-12-04T08:54:42;99193.95;;;3.32;54.66
69127;BME280;56688;50.234;19.292;2023-12-04T08:57:09;99191.66;;;3.50;54.28
69127;BME280;56688;50.234;19.292;2023-12-04T08:59:36;99190.20;;;3.82;54.17
69127;BME280;56688;50.234;19.292;2023-12-04T09:02:04;99190.77;;;4.12;53.25
69127;BME280;56688;50.234;19.292;2023-12-04T09:04:31;99188.47;;;4.16;52.20
69127;BME280;56688;50.234;19.292;2023-12-04T09:07:00;99187.69;;;4.20;52.32
69127;BME280;56688;50.234;19.292;2023-12-04T09:09:30;99189.88;;;4.29;51.95
69127;BME280;56688;50.234;19.292;2023-12-04T09:11:58;99195.11;;;4.40;51.64
69127;BME280;56688;50.234;19.292;2023-12-04T09:14:24;99189.55;;;4.49;51.42
69127;BME280;56688;50.234;19.292;2023-12-04T09:16:51;99192.33;;;4.62;51.17
69127;BME280;56688;50.234;19.292;2023-12-04T09:19:18;99189.45;;;4.56;51.26
69127;BME280;56688;50.234;19.292;2023-12-04T09:21:45;99183.96;;;4.44;51.39
69127;BME280;56688;50.234;19.292;2023-12-04T09:24:17;99180.94;;;4.42;51.64
69127;BME280;56688;50.234;19.292;2023-12-04T09:26:44;99180.18;;;4.39;51.32
69127;BME280;56688;50.234;19.292;2023-12-04T09:29:12;99171.65;;;4.28;51.85
69127;BME280;56688;50.234;19.292;2023-12-04T09:31:39;99170.73;;;4.22;51.76
69127;BME280;56688;50.234;19.292;2023-12-04T09:34:06;99168.48;;;4.17;52.00
69127;BME280;56688;50.234;19.292;2023-12-04T09:36:33;99165.99;;;4.22;52.24
69127;BME280;56688;50.234;19.292;2023-12-04T09:39:00;99159.53;;;4.31;52.13
69127;BME280;56688;50.234;19.292;2023-12-04T09:41:27;99159.90;;;4.31;51.88
69127;BME280;56688;50.234;19.292;2023-12-04T09:43:54;99155.33;;;4.31;51.88
69127;BME280;56688;50.234;19.292;2023-12-04T09:46:21;99149.24;;;4.34;51.73
69127;BME280;56688;50.234;19.292;2023-12-04T09:48:48;99143.61;;;4.34;51.62
69127;BME280;56688;50.234;19.292;2023-12-04T09:51:16;99141.96;;;4.25;51.61
69127;BME280;56688;50.234;19.292;2023-12-04T09:53:47;99138.02;;;4.21;51.78
69127;BME280;56688;50.234;19.292;2023-12-04T09:56:16;99132.85;;;4.16;51.85
69127;BME280;56688;50.234;19.292;2023-12-04T09:58:45;99133.37;;;4.20;51.69
69127;BME280;56688;50.234;19.292;2023-12-04T10:01:14;99125.59;;;4.12;51.80
69127;BME280;56688;50.234;19.292;2023-12-04T10:03:42;99128.05;;;4.16;51.83
69127;BME280;56688;50.234;19.292;2023-12-04T10:06:14;99126.48;;;4.26;51.96
69127;BME280;56688;50.234;19.292;2023-12-04T10:08:44;99120.20;;;4.45;51.49
69127;BME280;56688;50.234;19.292;2023-12-04T10:11:12;99118.71;;;4.56;51.03
69127;BME280;56688;50.234;19.292;2023-12-04T10:13:40;99118.30;;;4.71;50.82
69127;BME280;56688;50.234;19.292;2023-12-04T10:16:34;99107.11;;;4.90;50.08
69127;BME280;56688;50.234;19.292;2023-12-04T10:21:46;99103.16;;;5.02;49.58
69127;BME280;56688;50.234;19.292;2023-12-04T10:27:02;99100.59;;;5.47;48.91
69127;BME280;56688;50.234;19.292;2023-12-04T10:32:08;99094.77;;;5.66;48.28
69127;BME280;56688;50.234;19.292;2023-12-04T10:34:35;99093.64;;;5.88;47.85
69127;BME280;56688;50.234;19.292;2023-12-04T10:37:04;99088.31;;;6.02;47.48
69127;BME280;56688;50.234;19.292;2023-12-04T10:39:46;99085.42;;;6.14;47.17
69127;BME280;56688;50.234;19.292;2023-12-04T10:42:24;99085.20;;;6.18;46.41
69127;BME280;56688;50.234;19.292;2023-12-04T10:44:52;99081.06;;;6.09;46.46
69127;BME280;56688;50.234;19.292;2023-12-04T10:47:21;99079.50;;;6.07;47.13
69127;BME280;56688;50.234;19.292;2023-12-04T10:49:50;99079.11;;;6.13;46.56
69127;BME280;56688;50.234;19.292;2023-12-04T10:52:19;99077.70;;;6.14;46.59
69127;BME280;56688;50.234;19.292;2023-12-04T10:54:47;99072.54;;;6.28;46.20
69127;BME280;56688;50.234;19.292;2023-12-04T10:57:31;99069.83;;;6.50;45.87
69127;BME280;56688;50.234;19.292;2023-12-04T11:00:03;99068.38;;;6.63;45.45
69127;BME280;56688;50.234;19.292;2023-12-04T11:02:34;99062.36;;;6.96;45.32
69127;BME280;56688;50.234;19.292;2023-12-04T11:05:08;99060.45;;;7.27;44.26
69127;BME280;56688;50.234;19.292;2023-12-04T11:07:44;99060.06;;;7.45;43.43
69127;BME280;56688;50.234;19.292;2023-12-04T11:10:42;99055.55;;;7.42;43.14
69127;BME280;56688;50.234;19.292;2023-12-04T11:13:17;99049.87;;;7.46;43.09
69127;BME280;56688;50.234;19.292;2023-12-04T11:15:48;99046.11;;;7.55;42.59
69127;BME280;56688;50.234;19.292;2023-12-04T11:18:21;99042.98;;;7.49;42.32
69127;BME280;56688;50.234;19.292;2023-12-04T11:20:56;99042.16;;;7.45;42.13
69127;BME280;56688;50.234;19.292;2023-12-04T11:23:25;99036.71;;;7.38;41.88
69127;BME280;56688;50.234;19.292;2023-12-04T11:25:53;99036.29;;;7.35;42.16
69127;BME280;56688;50.234;19.292;2023-12-04T11:28:20;99038.97;;;7.45;42.38
69127;BME280;56688;50.234;19.292;2023-12-04T11:30:47;99035.52;;;7.74;41.67
69127;BME280;56688;50.234;19.292;2023-12-04T11:33:16;99038.95;;;7.80;40.81
69127;BME280;56688;50.234;19.292;2023-12-04T11:35:44;99035.29;;;7.97;40.65
69127;BME280;56688;50.234;19.292;2023-12-04T11:38:14;99030.39;;;8.15;40.17
69127;BME280;56688;50.234;19.292;2023-12-04T11:40:42;99028.98;;;8.33;40.35
69127;BME280;56688;50.234;19.292;2023-12-04T11:43:25;99022.09;;;8.58;39.62
69127;BME280;56688;50.234;19.292;2023-12-04T11:45:53;99021.90;;;8.64;39.20
69127;BME280;56688;50.234;19.292;2023-12-04T11:48:22;99021.02;;;8.63;39.41
69127;BME280;56688;50.234;19.292;2023-12-04T11:50:50;99016.84;;;8.78;39.78
69127;BME280;56688;50.234;19.292;2023-12-04T11:53:19;99019.73;;;8.99;38.86
69127;BME280;56688;50.234;19.292;2023-12-04T11:55:45;99012.83;;;9.00;38.38
69127;BME280;56688;50.234;19.292;2023-12-04T11:58:13;99012.23;;;8.84;38.60
69127;BME280;56688;50.234;19.292;2023-12-04T12:00:41;99009.70;;;8.89;38.80
69127;BME280;56688;50.234;19.292;2023-12-04T12:03:09;99003.42;;;8.97;38.52
69127;BME280;56688;50.234;19.292;2023-12-04T12:05:49;99002.33;;;9.00;38.60
69127;BME280;56688;50.234;19.292;2023-12-04T12:08:18;98997.46;;;9.09;38.34
69127;BME280;56688;50.234;19.292;2023-12-04T12:10:45;98992.27;;;9.08;37.85
69127;BME280;56688;50.234;19.292;2023-12-04T12:13:14;98990.10;;;8.95;37.73
69127;BME280;56688;50.234;19.292;2023-12-04T12:15:42;98988.80;;;8.81;38.02
69127;BME280;56688;50.234;19.292;2023-12-04T12:18:09;98989.78;;;8.77;37.93
69127;BME280;56688;50.234;19.292;2023-12-04T12:20:37;98986.13;;;8.81;38.08
69127;BME280;56688;50.234;19.292;2023-12-04T12:23:04;98983.11;;;8.96;37.83
69127;BME280;56688;50.234;19.292;2023-12-04T12:25:31;98977.02;;;9.01;37.48
69127;BME280;56688;50.234;19.292;2023-12-04T12:28:02;98970.20;;;9.00;37.50
69127;BME280;56688;50.234;19.292;2023-12-04T12:30:29;98967.74;;;9.11;37.27
69127;BME280;56688;50.234;19.292;2023-12-04T12:32:56;98968.20;;;9.18;37.11
69127;BME280;56688;50.234;19.292;2023-12-04T12:35:24;98963.13;;;9.19;37.22
69127;BME280;56688;50.234;19.292;2023-12-04T12:37:51;98962.02;;;9.21;36.78
69127;BME280;56688;50.234;19.292;2023-12-04T12:40:22;98957.15;;;8.86;37.00
69127;BME280;56688;50.234;19.292;2023-12-04T12:42:49;98951.85;;;8.48;37.99
69127;BME280;56688;50.234;19.292;2023-12-04T12:45:18;98948.64;;;8.26;38.67
69127;BME280;56688;50.234;19.292;2023-12-04T12:47:45;98946.02;;;8.02;38.98
69127;BME280;56688;50.234;19.292;2023-12-04T12:50:13;98945.69;;;7.73;39.83
69127;BME280;56688;50.234;19.292;2023-12-04T12:52:43;98939.98;;;7.56;40.24
69127;BME280;56688;50.234;19.292;2023-12-04T12:55:10;98933.81;;;7.39;40.62
69127;BME280;56688;50.234;19.292;2023-12-04T12:57:37;98939.80;;;7.13;40.74
69127;BME280;56688;50.234;19.292;2023-12-04T13:00:05;98932.09;;;6.70;41.21
69127;BME280;56688;50.234;19.292;2023-12-04T13:02:35;98933.09;;;6.21;42.48
69127;BME280;56688;50.234;19.292;2023-12-04T13:05:03;98935.85;;;5.81;43.10
69127;BME280;56688;50.234;19.292;2023-12-04T13:07:31;98937.73;;;5.47;43.54